createdAt,value
2018-09-20T00:02:16.238Z,18.20
2018-09-20T00:04:44.741Z,18.10
2018-09-20T00:07:13.221Z,18.10
2018-09-20T00:09:41.468Z,18.10
2018-09-20T00:12:09.721Z,18.10
2018-09-20T00:14:38.084Z,18.10
2018-09-20T00:17:06.529Z,18.10
2018-09-20T00:24:57.792Z,18.00
2018-09-20T00:27:26.095Z,18.00
2018-09-20T00:29:54.361Z,18.00
2018-09-20T00:32:23.219Z,18.00
2018-09-20T00:34:51.663Z,18.00
2018-09-20T00:37:20.181Z,18.10
2018-09-20T00:44:43.519Z,18.10
2018-09-20T00:47:11.771Z,18.00
2018-09-20T00:49:39.930Z,18.00
2018-09-20T00:52:08.218Z,17.90
2018-09-20T00:54:36.596Z,17.90
2018-09-20T00:57:05.229Z,17.80
2018-09-20T00:59:33.551Z,17.90
2018-09-20T01:02:02.043Z,17.90
2018-09-20T01:04:30.609Z,17.90
2018-09-20T01:06:58.970Z,17.90
2018-09-20T01:09:27.299Z,17.90
2018-09-20T01:11:55.576Z,17.90
2018-09-20T01:14:24.032Z,17.80
2018-09-20T01:16:52.490Z,17.80
2018-09-20T01:24:14.137Z,17.80
2018-09-20T01:26:42.371Z,17.60
2018-09-20T01:29:10.585Z,17.60
2018-09-20T01:31:38.895Z,17.50
2018-09-20T01:34:07.282Z,17.50
2018-09-20T01:37:33.471Z,17.40
2018-09-20T01:40:01.803Z,17.40
2018-09-20T01:42:30.037Z,17.40
2018-09-20T01:44:58.308Z,17.40
2018-09-20T01:47:26.876Z,17.40
2018-09-20T01:49:55.136Z,17.30
2018-09-20T01:52:23.465Z,17.20
2018-09-20T01:54:51.925Z,17.20
2018-09-20T01:57:20.248Z,17.20
2018-09-20T01:59:48.630Z,17.20
2018-09-20T02:02:16.965Z,17.20
2018-09-20T02:04:45.278Z,17.20
2018-09-20T02:07:13.550Z,17.10
2018-09-20T02:09:42.172Z,17.10
2018-09-20T02:12:10.544Z,17.10
2018-09-20T02:14:38.912Z,17.10
2018-09-20T02:17:07.504Z,17.10
2018-09-20T02:19:35.845Z,17.10
2018-09-20T02:22:04.185Z,17.10
2018-09-20T02:24:32.495Z,17.00
2018-09-20T02:27:01.370Z,17.00
2018-09-20T02:29:29.760Z,17.00
2018-09-20T02:31:58.107Z,17.00
2018-09-20T02:34:26.436Z,16.90
2018-09-20T02:36:54.792Z,16.90
2018-09-20T02:39:24.220Z,16.90
2018-09-20T02:41:52.530Z,16.90
2018-09-20T02:44:20.827Z,16.80
2018-09-20T02:46:49.155Z,16.80
2018-09-20T02:49:17.471Z,16.70
2018-09-20T02:51:45.987Z,16.70
2018-09-20T02:54:15.420Z,16.60
2018-09-20T02:56:43.857Z,16.60
2018-09-20T02:59:12.146Z,16.60
2018-09-20T03:06:34.278Z,16.60
2018-09-20T03:09:02.502Z,16.60
2018-09-20T03:11:30.770Z,16.60
2018-09-20T03:13:59.067Z,16.60
2018-09-20T03:16:27.628Z,16.60
2018-09-20T03:23:51.126Z,16.60
2018-09-20T03:26:19.449Z,16.60
2018-09-20T03:28:48.028Z,16.70
2018-09-20T03:31:16.354Z,16.60
2018-09-20T03:33:44.694Z,16.50
2018-09-20T03:36:13.839Z,16.50
2018-09-20T03:38:42.209Z,16.50
2018-09-20T03:41:10.809Z,16.50
2018-09-20T03:43:39.207Z,16.60
2018-09-20T03:46:07.591Z,16.60
2018-09-20T03:48:35.986Z,16.60
2018-09-20T03:51:04.371Z,16.60
2018-09-20T03:53:33.208Z,16.60
2018-09-20T03:56:01.582Z,16.50
2018-09-20T03:58:30.782Z,16.50
2018-09-20T04:00:59.258Z,16.50
2018-09-20T04:03:27.583Z,16.50
2018-09-20T04:05:55.857Z,16.40
2018-09-20T04:08:24.109Z,16.40
2018-09-20T04:10:52.326Z,16.30
2018-09-20T04:13:20.543Z,16.30
2018-09-20T04:15:48.820Z,16.30
2018-09-20T04:18:17.081Z,16.30
2018-09-20T04:20:45.339Z,16.30
2018-09-20T04:23:14.692Z,16.30
2018-09-20T04:25:42.962Z,16.30
2018-09-20T04:28:11.229Z,16.30
2018-09-20T04:30:39.594Z,16.30
2018-09-20T04:33:08.126Z,16.40
2018-09-20T04:35:36.395Z,16.40
2018-09-20T04:38:05.237Z,16.50
2018-09-20T04:40:37.766Z,16.60
2018-09-20T04:43:07.583Z,16.60
2018-09-20T04:45:36.005Z,16.60
2018-09-20T04:48:04.726Z,16.70
2018-09-20T04:50:32.992Z,16.70
2018-09-20T04:53:01.269Z,16.70
2018-09-20T04:55:29.502Z,16.80
2018-09-20T04:57:57.814Z,16.80
2018-09-20T05:00:27.018Z,16.70
2018-09-20T05:02:55.258Z,16.80
2018-09-20T05:05:23.606Z,16.80
2018-09-20T05:07:51.844Z,16.80
2018-09-20T05:10:20.171Z,16.80
2018-09-20T05:12:48.402Z,16.80
2018-09-20T05:15:17.452Z,16.80
2018-09-20T05:17:45.725Z,16.80
2018-09-20T05:20:14.093Z,16.70
2018-09-20T05:27:39.483Z,16.70
2018-09-20T05:30:07.859Z,16.70
2018-09-20T05:32:37.964Z,16.80
2018-09-20T05:35:06.321Z,16.80
2018-09-20T05:37:35.335Z,16.80
2018-09-20T05:40:03.742Z,16.80
2018-09-20T05:42:32.134Z,16.90
2018-09-20T05:49:57.311Z,17.10
2018-09-20T05:52:25.506Z,17.20
2018-09-20T05:54:53.732Z,17.20
2018-09-20T05:57:21.998Z,17.30
2018-09-20T05:59:50.315Z,17.30
2018-09-20T06:02:19.130Z,17.50
2018-09-20T06:04:47.357Z,17.70
2018-09-20T06:07:15.793Z,17.80
2018-09-20T06:09:43.996Z,17.90
2018-09-20T06:12:12.292Z,18.00
2018-09-20T06:14:40.532Z,18.10
2018-09-20T06:17:08.773Z,18.10
2018-09-20T06:19:36.981Z,18.10
2018-09-20T06:22:05.245Z,18.20
2018-09-20T06:29:27.274Z,18.50
2018-09-20T06:31:55.797Z,18.70
2018-09-20T06:34:24.021Z,18.80
2018-09-20T06:36:52.353Z,18.80
2018-09-20T06:39:20.564Z,18.80
2018-09-20T06:46:41.264Z,18.80
2018-09-20T06:49:09.478Z,18.90
2018-09-20T06:51:37.704Z,19.00
2018-09-20T06:54:05.981Z,19.00
2018-09-20T06:56:34.258Z,19.20
2018-09-20T06:59:03.901Z,19.30
2018-09-20T07:01:32.167Z,19.40
2018-09-20T07:04:07.152Z,19.60
2018-09-20T07:06:35.385Z,19.60
2018-09-20T07:09:04.534Z,19.70
2018-09-20T07:11:32.942Z,19.80
2018-09-20T07:14:01.124Z,19.90
2018-09-20T07:16:29.424Z,20.00
2018-09-20T07:18:57.604Z,20.20
2018-09-20T07:21:26.110Z,20.30
2018-09-20T07:23:54.636Z,20.40
2018-09-20T07:26:22.965Z,20.70
2018-09-20T07:28:51.236Z,20.90
2018-09-20T07:31:19.437Z,20.90
2018-09-20T07:33:48.114Z,21.00
2018-09-20T07:36:16.691Z,21.20
2018-09-20T07:38:44.939Z,21.30
2018-09-20T07:41:13.209Z,21.50
2018-09-20T07:48:35.330Z,21.70
2018-09-20T07:51:03.687Z,22.10
2018-09-20T07:53:31.865Z,22.20
2018-09-20T07:56:00.202Z,22.30
2018-09-20T07:58:28.494Z,22.30
2018-09-20T08:00:57.556Z,22.30
2018-09-20T08:03:25.891Z,22.30
2018-09-20T08:05:54.215Z,22.50
2018-09-20T08:08:22.607Z,22.80
2018-09-20T08:10:50.909Z,22.80
2018-09-20T08:13:19.118Z,23.40
2018-09-20T08:15:47.317Z,24.30
2018-09-20T08:18:15.543Z,24.80
2018-09-20T08:20:43.930Z,25.90
2018-09-20T08:23:13.046Z,26.60
2018-09-20T08:25:41.238Z,27.40
2018-09-20T08:28:09.484Z,28.10
2018-09-20T08:30:37.731Z,28.60
2018-09-20T08:33:06.172Z,27.40
2018-09-20T08:35:34.383Z,26.80
2018-09-20T08:38:02.640Z,26.30
2018-09-20T08:40:30.894Z,25.50
2018-09-20T08:42:59.120Z,25.60
2018-09-20T08:45:27.393Z,26.60
2018-09-20T08:47:55.624Z,26.90
2018-09-20T08:50:23.922Z,26.40
2018-09-20T08:52:52.141Z,26.30
2018-09-20T08:55:20.297Z,26.90
2018-09-20T08:57:51.447Z,27.70
2018-09-20T09:00:19.748Z,28.20
2018-09-20T09:07:40.736Z,26.70
2018-09-20T09:10:08.924Z,26.40
2018-09-20T09:12:37.143Z,27.70
2018-09-20T09:15:05.405Z,28.80
2018-09-20T09:17:33.705Z,29.60
2018-09-20T09:20:03.278Z,30.50
2018-09-20T09:22:31.553Z,31.00
2018-09-20T09:24:59.714Z,30.70
2018-09-20T09:27:28.023Z,29.80
2018-09-20T09:29:56.274Z,29.80
2018-09-20T09:32:24.544Z,29.40
2018-09-20T09:34:52.882Z,28.90
2018-09-20T09:37:21.177Z,28.50
2018-09-20T09:39:49.366Z,28.70
2018-09-20T09:42:17.705Z,28.40
2018-09-20T09:44:45.841Z,28.30
2018-09-20T09:47:14.025Z,28.20
2018-09-20T09:49:46.303Z,28.70
2018-09-20T09:52:14.497Z,28.70
2018-09-20T09:54:42.754Z,29.00
2018-09-20T09:57:10.951Z,29.30
2018-09-20T09:59:40.283Z,29.00
2018-09-20T10:02:08.503Z,29.60
2018-09-20T10:04:36.733Z,28.90
2018-09-20T10:07:05.188Z,28.50
2018-09-20T10:09:33.326Z,27.80
2018-09-20T10:12:01.618Z,27.40
2018-09-20T10:14:29.826Z,26.90
2018-09-20T10:16:58.284Z,26.90
2018-09-20T10:19:26.560Z,27.20
2018-09-20T10:26:47.200Z,26.20
2018-09-20T10:29:15.450Z,25.60
2018-09-20T10:31:44.031Z,25.20
2018-09-20T10:34:12.429Z,25.20
2018-09-20T10:36:40.591Z,25.40
2018-09-20T10:39:10.779Z,25.40
2018-09-20T10:41:39.018Z,25.20
2018-09-20T10:44:07.358Z,25.20
2018-09-20T10:46:35.679Z,25.30
2018-09-20T10:49:03.913Z,25.30
2018-09-20T10:51:32.698Z,25.40
2018-09-20T10:54:00.978Z,25.30
2018-09-20T10:56:29.199Z,25.40
2018-09-20T10:58:57.547Z,25.30
2018-09-20T11:01:25.804Z,25.50
2018-09-20T11:03:54.012Z,25.90
2018-09-20T11:06:22.428Z,25.90
2018-09-20T11:08:50.738Z,26.00
2018-09-20T11:11:18.992Z,25.90
2018-09-20T11:13:47.203Z,25.90
2018-09-20T11:16:15.389Z,26.40
2018-09-20T11:18:43.681Z,26.50
2018-09-20T11:21:11.919Z,25.90
2018-09-20T11:28:33.781Z,25.70
2018-09-20T11:31:01.982Z,25.30
2018-09-20T11:33:30.247Z,25.60
2018-09-20T11:35:58.433Z,25.70
2018-09-20T11:38:26.583Z,25.90
2018-09-20T11:40:55.923Z,25.80
2018-09-20T11:43:24.197Z,26.10
2018-09-20T11:45:52.644Z,26.30
2018-09-20T11:48:20.945Z,26.00
2018-09-20T11:50:49.133Z,25.80
2018-09-20T11:53:17.414Z,25.80
2018-09-20T11:55:45.782Z,25.80
2018-09-20T11:58:14.057Z,25.70
2018-09-20T12:00:43.142Z,25.80
2018-09-20T12:03:11.421Z,26.00
2018-09-20T12:05:39.635Z,26.10
2018-09-20T12:08:07.957Z,26.00
2018-09-20T12:10:36.222Z,25.90
2018-09-20T12:13:04.397Z,26.00
2018-09-20T12:15:32.714Z,26.20
2018-09-20T12:18:01.013Z,25.90
2018-09-20T12:20:30.377Z,26.00
2018-09-20T12:22:58.939Z,26.00
2018-09-20T12:25:27.371Z,26.10
2018-09-20T12:27:55.648Z,26.20
2018-09-20T12:30:23.987Z,26.20
2018-09-20T12:32:52.235Z,25.90
2018-09-20T12:35:20.593Z,25.90
2018-09-20T12:37:48.878Z,26.20
2018-09-20T12:40:17.233Z,25.80
2018-09-20T12:42:45.524Z,26.00
2018-09-20T12:45:14.537Z,25.90
2018-09-20T12:47:42.887Z,26.00
2018-09-20T12:50:11.290Z,26.20
2018-09-20T12:52:39.492Z,26.40
2018-09-20T12:55:07.715Z,26.40
2018-09-20T12:57:35.975Z,26.40
2018-09-20T13:00:04.858Z,26.30
2018-09-20T13:02:33.175Z,26.40
2018-09-20T13:05:01.480Z,26.40
2018-09-20T13:07:29.762Z,26.50
2018-09-20T13:09:58.042Z,26.50
2018-09-20T13:12:26.296Z,26.40
2018-09-20T13:14:54.563Z,26.40
2018-09-20T13:17:22.830Z,26.50
2018-09-20T13:19:51.194Z,26.60
2018-09-20T13:27:12.320Z,26.80
2018-09-20T13:29:40.556Z,26.60
2018-09-20T13:32:08.811Z,26.50
2018-09-20T13:34:37.119Z,26.50
2018-09-20T13:37:05.605Z,26.60
2018-09-20T13:39:34.028Z,26.80
2018-09-20T13:42:02.305Z,26.70
2018-09-20T13:44:30.613Z,26.70
2018-09-20T13:46:58.959Z,26.60
2018-09-20T13:49:27.263Z,26.60
2018-09-20T13:51:55.574Z,26.50
2018-09-20T13:54:23.969Z,26.30
2018-09-20T13:56:52.275Z,26.20
2018-09-20T13:59:21.096Z,26.20
2018-09-20T14:01:49.393Z,26.30
2018-09-20T14:04:17.667Z,26.50
2018-09-20T14:06:45.913Z,26.60
2018-09-20T14:09:14.173Z,26.80
2018-09-20T14:11:42.407Z,26.90
2018-09-20T14:14:12.268Z,26.80
2018-09-20T14:16:40.510Z,26.90
2018-09-20T14:19:08.722Z,26.90
2018-09-20T14:21:37.219Z,26.80
2018-09-20T14:24:05.473Z,26.70
2018-09-20T14:26:33.944Z,26.70
2018-09-20T14:29:02.234Z,26.90
2018-09-20T14:31:30.511Z,26.80
2018-09-20T14:33:59.353Z,26.70
2018-09-20T14:36:27.625Z,26.70
2018-09-20T14:38:55.915Z,26.60
2018-09-20T14:41:24.153Z,26.50
2018-09-20T14:43:52.449Z,26.60
2018-09-20T14:46:20.697Z,26.60
2018-09-20T14:48:49.846Z,26.60
2018-09-20T14:51:18.069Z,26.60
2018-09-20T14:53:46.441Z,26.60
2018-09-20T14:56:14.730Z,26.60
2018-09-20T14:58:42.997Z,26.50
2018-09-20T15:01:11.313Z,26.40
2018-09-20T15:03:39.588Z,26.40
2018-09-20T15:06:07.903Z,26.30
2018-09-20T15:08:36.694Z,26.20
2018-09-20T15:11:05.864Z,26.10
2018-09-20T15:13:34.115Z,26.10
2018-09-20T15:16:02.723Z,26.10
2018-09-20T15:18:31.036Z,26.00
2018-09-20T15:21:00.010Z,26.00
2018-09-20T15:23:28.309Z,26.00
2018-09-20T15:25:56.569Z,26.10
2018-09-20T15:28:24.915Z,25.90
2018-09-20T15:30:53.490Z,25.80
2018-09-20T15:33:21.848Z,25.80
2018-09-20T15:35:50.322Z,25.70
2018-09-20T15:38:18.584Z,25.70
2018-09-20T15:40:46.897Z,25.60
2018-09-20T15:43:15.405Z,25.60
2018-09-20T15:45:43.709Z,24.60
2018-09-20T15:48:12.069Z,25.50
2018-09-20T15:50:40.356Z,25.50
2018-09-20T15:53:08.683Z,25.50
2018-09-20T15:55:37.013Z,25.50
2018-09-20T15:58:06.277Z,25.40
2018-09-20T16:05:27.634Z,25.30
2018-09-20T16:07:55.928Z,25.20
2018-09-20T16:10:24.157Z,25.10
2018-09-20T16:12:53.192Z,25.20
2018-09-20T16:15:21.736Z,25.20
2018-09-20T16:17:50.036Z,25.20
2018-09-20T16:20:18.583Z,25.10
2018-09-20T16:22:46.834Z,25.10
2018-09-20T16:25:15.123Z,25.10
2018-09-20T16:27:43.438Z,25.10
2018-09-20T16:30:32.905Z,25.00
2018-09-20T16:33:17.689Z,25.00
2018-09-20T16:36:01.082Z,24.90
2018-09-20T16:38:40.940Z,24.90
2018-09-20T16:41:13.089Z,24.70
2018-09-20T16:43:41.317Z,24.60
2018-09-20T16:46:10.139Z,24.50
2018-09-20T16:48:38.441Z,24.40
2018-09-20T16:51:07.233Z,24.30
2018-09-20T16:53:35.736Z,24.30
2018-09-20T16:56:04.109Z,24.30
2018-09-20T16:58:32.411Z,24.20
2018-09-20T17:01:00.751Z,24.20
2018-09-20T17:03:29.223Z,24.10
2018-09-20T17:05:57.609Z,23.90
2018-09-20T17:08:25.898Z,24.10
2018-09-20T17:10:54.213Z,24.00
2018-09-20T17:13:22.512Z,23.90
2018-09-20T17:15:50.965Z,23.80
2018-09-20T17:18:19.260Z,23.80
2018-09-20T17:20:47.605Z,23.70
2018-09-20T17:23:15.921Z,23.60
2018-09-20T17:27:44.730Z,23.50
2018-09-20T17:30:13.318Z,23.40
2018-09-20T17:32:41.554Z,23.10
2018-09-20T17:35:10.068Z,23.10
2018-09-20T17:37:39.159Z,22.90
2018-09-20T17:40:08.041Z,22.80
2018-09-20T17:42:37.210Z,22.70
2018-09-20T17:45:05.968Z,22.60
2018-09-20T17:47:34.352Z,22.50
2018-09-20T17:50:04.288Z,22.40
2018-09-20T17:52:33.920Z,22.30
2018-09-20T17:55:02.413Z,22.20
2018-09-20T17:57:31.134Z,22.20
2018-09-20T17:59:59.443Z,22.30
2018-09-20T18:02:28.306Z,22.30
2018-09-20T18:04:56.781Z,22.40
2018-09-20T18:07:25.106Z,22.40
2018-09-20T18:09:54.252Z,22.40
2018-09-20T18:12:23.995Z,22.50
2018-09-20T18:14:52.723Z,22.50
2018-09-20T18:17:20.983Z,22.50
2018-09-20T18:19:49.758Z,22.50
2018-09-20T18:22:18.008Z,22.50
2018-09-20T18:24:46.247Z,22.40
2018-09-20T18:27:14.509Z,22.40
2018-09-20T18:29:42.782Z,22.30
2018-09-20T18:32:10.995Z,22.20
2018-09-20T18:34:40.290Z,22.20
2018-09-20T18:37:08.542Z,22.20
2018-09-20T18:39:37.032Z,22.20
2018-09-20T18:42:05.393Z,22.20
2018-09-20T18:44:33.716Z,22.90
2018-09-20T18:47:02.078Z,22.20
2018-09-20T18:49:30.420Z,22.20
2018-09-20T18:51:59.361Z,22.20
2018-09-20T18:54:27.648Z,22.20
2018-09-20T18:56:55.928Z,22.20
2018-09-20T18:59:24.227Z,22.10
2018-09-20T19:01:52.475Z,22.10
2018-09-20T19:04:20.774Z,22.10
2018-09-20T19:06:49.087Z,22.20
2018-09-20T19:09:17.288Z,22.10
2018-09-20T19:11:45.520Z,22.10
2018-09-20T19:14:13.852Z,22.00
2018-09-20T19:16:42.279Z,22.00
2018-09-20T19:19:10.477Z,22.00
2018-09-20T19:21:38.846Z,22.10
2018-09-20T19:24:07.176Z,22.00
2018-09-20T19:26:35.439Z,22.10
2018-09-20T19:29:03.767Z,22.10
2018-09-20T19:36:24.918Z,22.10
2018-09-20T19:38:53.466Z,22.00
2018-09-20T19:41:21.786Z,22.10
2018-09-20T19:43:50.325Z,22.00
2018-09-20T19:46:18.868Z,22.00
2018-09-20T19:48:47.496Z,22.00
2018-09-20T19:51:15.837Z,22.00
2018-09-20T19:53:44.276Z,22.00
2018-09-20T19:56:12.689Z,21.90
2018-09-20T19:58:41.127Z,21.90
2018-09-20T20:04:12.587Z,21.90
2018-09-20T20:06:41.175Z,21.80
2018-09-20T20:09:11.481Z,21.70
2018-09-20T20:11:40.501Z,21.70
2018-09-20T20:14:08.910Z,21.70
2018-09-20T20:16:37.209Z,21.70
2018-09-20T20:19:05.876Z,21.60
2018-09-20T20:21:35.124Z,21.60
2018-09-20T20:24:04.686Z,21.50
2018-09-20T20:26:33.111Z,21.50
2018-09-20T20:29:01.554Z,21.60
2018-09-20T20:31:30.153Z,21.50
2018-09-20T20:33:58.754Z,21.50
2018-09-20T20:36:28.193Z,21.50
2018-09-20T20:38:56.923Z,21.60
2018-09-20T20:41:25.868Z,21.70
2018-09-20T20:43:54.631Z,21.80
2018-09-20T20:46:23.116Z,21.70
2018-09-20T20:48:52.410Z,21.70
2018-09-20T20:51:20.898Z,21.80
2018-09-20T20:53:49.228Z,21.80
2018-09-20T20:56:17.576Z,21.70
2018-09-20T20:58:46.040Z,21.70
2018-09-20T21:01:18.924Z,21.70
2018-09-20T21:03:49.731Z,21.80
2018-09-20T21:06:18.849Z,21.70
2018-09-20T21:08:47.429Z,21.70
2018-09-20T21:11:16.121Z,21.70
2018-09-20T21:13:44.391Z,21.70
2018-09-20T21:16:14.147Z,21.70
2018-09-20T21:18:42.411Z,21.70
2018-09-20T21:21:10.727Z,21.70
2018-09-20T21:23:39.136Z,21.70
2018-09-20T21:26:08.470Z,21.40
2018-09-20T21:28:36.914Z,21.70
2018-09-20T21:31:05.910Z,21.60
2018-09-20T21:33:34.255Z,21.60
2018-09-20T21:36:02.723Z,21.50
2018-09-20T21:38:31.214Z,21.60
2018-09-20T21:40:59.601Z,21.60
2018-09-20T21:43:28.289Z,21.60
2018-09-20T21:45:56.700Z,21.60
2018-09-20T21:48:25.185Z,21.50
2018-09-20T21:50:53.573Z,21.50
2018-09-20T21:53:21.942Z,21.50
2018-09-20T21:55:50.298Z,21.50
2018-09-20T21:58:18.659Z,21.50
2018-09-20T22:00:47.241Z,21.50
2018-09-20T22:03:15.594Z,21.40
2018-09-20T22:05:44.173Z,21.50
2018-09-20T22:08:12.711Z,21.40
2018-09-20T22:15:36.091Z,21.40
2018-09-20T22:18:04.478Z,21.40
2018-09-20T22:20:33.930Z,21.40
2018-09-20T22:23:02.380Z,21.50
2018-09-20T22:25:31.408Z,21.50
2018-09-20T22:27:59.738Z,21.50
2018-09-20T22:30:28.875Z,21.60
2018-09-20T22:32:57.474Z,21.60
2018-09-20T22:35:25.823Z,21.60
2018-09-20T22:37:54.069Z,21.60
2018-09-20T22:40:22.337Z,21.60
2018-09-20T22:42:50.651Z,21.60
2018-09-20T22:45:18.935Z,21.60
2018-09-20T22:47:48.211Z,21.60
2018-09-20T22:50:16.515Z,21.50
2018-09-20T22:52:44.785Z,21.50
2018-09-20T22:55:13.000Z,21.40
2018-09-20T22:57:41.309Z,21.60
2018-09-20T23:00:09.536Z,21.50
2018-09-20T23:02:37.794Z,21.50
2018-09-20T23:05:06.041Z,21.40
2018-09-20T23:07:34.297Z,21.30
2018-09-20T23:10:02.559Z,21.30
2018-09-20T23:12:31.913Z,21.20
2018-09-20T23:15:00.225Z,21.10
2018-09-20T23:17:28.438Z,21.10
2018-09-20T23:19:56.677Z,21.10
2018-09-20T23:22:24.922Z,21.10
2018-09-20T23:24:53.197Z,21.10
2018-09-20T23:27:21.441Z,21.00
2018-09-20T23:29:49.700Z,21.00
2018-09-20T23:32:17.973Z,21.00
2018-09-20T23:34:47.107Z,21.00
2018-09-20T23:37:15.301Z,20.90
2018-09-20T23:39:43.538Z,20.90
2018-09-20T23:42:11.809Z,20.80
2018-09-20T23:44:40.165Z,20.80
2018-09-20T23:47:08.444Z,20.80
2018-09-20T23:49:36.757Z,20.70
2018-09-20T23:52:05.083Z,20.60
2018-09-20T23:54:33.337Z,20.60
2018-09-20T23:57:01.623Z,20.60
2018-09-20T23:59:29.920Z,20.60
